Time;durP1;ratioP1;P1;durP2;ratioP2;P2;SDS_P1;SDS_P2;PMS_P1;PMS_P2;Temp;Humidity;BMP_temperature;BMP_pressure;BME280_temperature;BME280_humidity;BME280_pressure;Samples;Min_cycle;Max_cycle;Signal;HPM_P1;HPM_P2
2023/03/20 00:01:56;;;;;;;19.90;14.07;;;;;;;7.37;100.00;101852.91;5016294;28;20037;-81
2023/03/20 00:04:21;;;;;;;21.83;14.47;;;;;;;7.36;100.00;101853.06;5009201;28;20049;-81
2023/03/20 00:06:47;;;;;;;21.97;12.83;;;;;;;7.36;100.00;101847.66;5017195;28;20045;-81
2023/03/20 00:09:12;;;;;;;19.43;13.10;;;;;;;7.34;100.00;101850.50;5014847;28;20048;-78
2023/03/20 00:11:49;;;;;;;20.33;12.90;;;;;;;7.35;100.00;101854.06;5016080;28;20125;-78
2023/03/20 00:14:16;;;;;;;20.37;12.47;;;;;;;7.34;100.00;101844.28;5014760;28;20072;-78
2023/03/20 00:16:44;;;;;;;19.13;11.67;;;;;;;7.32;100.00;101843.63;5015827;28;20051;-78
2023/03/20 00:19:16;;;;;;;21.80;12.13;;;;;;;7.34;100.00;101849.69;5015895;28;21719;-78
2023/03/20 00:21:42;;;;;;;20.27;12.10;;;;;;;7.35;100.00;101840.59;5015768;28;20067;-78
2023/03/20 00:24:08;;;;;;;21.33;12.03;;;;;;;7.32;100.00;101838.22;5015974;28;20037;-80
2023/03/20 00:26:35;;;;;;;20.27;12.53;;;;;;;7.30;100.00;101835.66;5016070;28;20041;-81
2023/03/20 00:29:03;;;;;;;23.13;12.80;;;;;;;7.31;100.00;101834.66;5016303;28;20503;-81
2023/03/20 00:31:35;;;;;;;21.43;12.77;;;;;;;7.31;100.00;101834.66;5015937;28;20081;-80
2023/03/20 00:34:05;;;;;;;19.83;12.43;;;;;;;7.26;100.00;101835.19;5016366;28;20037;-81
2023/03/20 00:36:30;;;;;;;22.40;12.97;;;;;;;7.29;100.00;101828.63;5016326;28;20029;-80
2023/03/20 00:38:59;;;;;;;20.40;12.73;;;;;;;7.29;100.00;101820.53;5016559;28;20028;-80
2023/03/20 00:41:30;;;;;;;21.17;13.03;;;;;;;7.33;100.00;101818.31;5014846;28;20036;-81
2023/03/20 00:43:59;;;;;;;22.00;12.63;;;;;;;7.28;100.00;101810.75;5015850;28;20025;-78
2023/03/20 00:46:25;;;;;;;23.27;13.10;;;;;;;7.30;100.00;101810.56;5015910;28;20029;-78
2023/03/20 00:48:51;;;;;;;23.03;12.87;;;;;;;7.28;100.00;101802.66;5015759;28;20037;-78
2023/03/20 00:51:17;;;;;;;21.73;12.90;;;;;;;7.25;100.00;101790.34;5015409;28;20379;-78
2023/03/20 00:53:43;;;;;;;20.43;12.90;;;;;;;7.26;100.00;101788.50;5015977;28;20033;-81
2023/03/20 00:56:30;;;;;;;22.97;12.37;;;;;;;7.28;100.00;101804.53;5016413;28;20033;-81
2023/03/20 00:58:57;;;;;;;19.93;12.80;;;;;;;7.22;100.00;101801.47;5015859;28;20032;-81
2023/03/20 01:01:23;;;;;;;20.47;12.70;;;;;;;7.20;100.00;101811.56;5015852;28;20688;-81
2023/03/20 01:03:48;;;;;;;21.00;12.70;;;;;;;7.20;100.00;101816.97;5016104;28;20124;-81
2023/03/20 01:06:14;;;;;;;21.43;12.90;;;;;;;7.19;100.00;101834.13;5016199;28;20040;-81
2023/03/20 01:08:40;;;;;;;19.27;11.93;;;;;;;7.17;100.00;101838.88;5015777;28;20032;-81
2023/03/20 01:11:05;;;;;;;21.23;12.50;;;;;;;7.15;100.00;101840.88;5016220;28;20404;-81
2023/03/20 01:13:32;;;;;;;20.00;12.73;;;;;;;7.13;100.00;101848.28;5015511;28;20063;-81
2023/03/20 01:15:58;;;;;;;21.13;12.27;;;;;;;7.08;100.00;101856.00;5013876;28;20460;-81
2023/03/20 01:18:25;;;;;;;21.77;12.87;;;;;;;7.06;100.00;101849.97;5015511;28;21249;-81
2023/03/20 01:20:54;;;;;;;23.90;13.00;;;;;;;7.03;100.00;101844.88;5016386;28;20104;-81
2023/03/20 01:23:21;;;;;;;20.27;13.27;;;;;;;6.98;100.00;101836.47;5015562;28;20033;-81
2023/03/20 01:25:48;;;;;;;21.03;12.73;;;;;;;6.96;100.00;101825.00;5016231;28;20033;-81
2023/03/20 01:28:22;;;;;;;23.07;14.17;;;;;;;6.93;100.00;101835.09;5015468;28;20040;-81
2023/03/20 01:30:48;;;;;;;21.33;12.90;;;;;;;6.84;100.00;101838.78;5008136;28;20018;-81
2023/03/20 01:33:16;;;;;;;21.50;13.70;;;;;;;6.76;100.00;101842.25;5014858;28;20056;-78
2023/03/20 01:35:42;;;;;;;19.97;13.23;;;;;;;6.71;100.00;101859.91;5015346;28;20163;-78
2023/03/20 01:38:17;;;;;;;22.80;13.17;;;;;;;6.63;100.00;101854.50;5014883;28;20045;-78
2023/03/20 01:40:49;;;;;;;23.13;13.23;;;;;;;6.55;100.00;101848.03;5015198;28;20045;-78
2023/03/20 01:43:17;;;;;;;22.60;13.30;;;;;;;6.47;100.00;101856.09;5013431;28;20045;-78
2023/03/20 01:46:09;;;;;;;21.67;13.57;;;;;;;6.44;100.00;101847.50;5015250;28;20034;-78
2023/03/20 01:48:56;;;;;;;22.37;14.60;;;;;;;6.42;100.00;101858.44;5010285;28;20041;-78
2023/03/20 01:51:31;;;;;;;22.57;13.73;;;;;;;6.35;100.00;101855.53;5008322;28;20953;-78
2023/03/20 01:54:00;;;;;;;21.60;13.33;;;;;;;6.33;100.00;101843.22;5014761;28;20061;-78
2023/03/20 01:56:29;;;;;;;22.37;14.30;;;;;;;6.30;100.00;101830.09;5014781;28;20148;-78
2023/03/20 01:59:08;;;;;;;22.47;13.87;;;;;;;6.28;100.00;101842.84;5014767;28;20120;-78
2023/03/20 02:01:35;;;;;;;23.80;15.40;;;;;;;6.25;100.00;101847.53;5014784;28;20052;-78
2023/03/20 02:04:02;;;;;;;22.57;14.87;;;;;;;6.22;100.00;101838.97;5015223;28;20033;-80
2023/03/20 02:06:28;;;;;;;23.03;16.20;;;;;;;6.19;100.00;101840.13;5016508;28;20029;-81
2023/03/20 02:08:54;;;;;;;24.23;16.47;;;;;;;6.19;100.00;101828.53;5018864;28;20171;-81
2023/03/20 02:11:22;;;;;;;23.07;16.23;;;;;;;6.12;100.00;101832.81;5019290;28;20041;-81
2023/03/20 02:13:54;;;;;;;23.60;16.37;;;;;;;6.11;100.00;101825.78;5019170;28;20037;-81
2023/03/20 02:16:19;;;;;;;25.43;16.27;;;;;;;6.10;100.00;101826.78;5019071;28;20029;-81
2023/03/20 02:18:48;;;;;;;27.63;17.27;;;;;;;6.06;100.00;101837.00;5018821;28;20055;-81
2023/03/20 02:22:08;;;;;;;24.33;17.00;;;;;;;6.02;100.00;101843.69;5010201;28;20037;-80
2023/03/20 02:25:14;;;;;;;26.73;17.13;;;;;;;5.98;100.00;101850.38;5018570;28;20033;-80
2023/03/20 02:28:13;;;;;;;26.37;17.17;;;;;;;5.95;100.00;101848.00;5018685;28;20111;-81
2023/03/20 02:31:05;;;;;;;27.13;17.87;;;;;;;5.88;100.00;101855.84;5018763;28;20104;-80
2023/03/20 02:34:02;;;;;;;28.40;17.77;;;;;;;5.89;100.00;101847.59;5017492;28;20096;-80
2023/03/20 02:36:39;;;;;;;27.00;17.77;;;;;;;5.89;100.00;101850.31;5018424;28;20071;-81
2023/03/20 02:39:33;;;;;;;27.33;18.27;;;;;;;5.89;100.00;101854.84;5018335;28;20033;-81
2023/03/20 02:42:28;;;;;;;31.30;19.17;;;;;;;5.88;100.00;101850.47;5008400;28;20080;-80
2023/03/20 02:45:05;;;;;;;27.63;17.85;;;;;;;5.87;100.00;101840.69;5018718;28;20048;-80
2023/03/20 02:47:40;;;;;;;29.27;18.40;;;;;;;5.86;100.00;101841.69;5018734;28;20399;-81
2023/03/20 02:50:23;;;;;;;29.47;19.53;;;;;;;5.90;100.00;101840.38;5017757;28;21706;-77
2023/03/20 02:53:09;;;;;;;28.80;19.67;;;;;;;5.89;100.00;101831.47;5032879;28;20465;-78
2023/03/20 02:55:49;;;;;;;29.23;19.93;;;;;;;5.86;100.00;101834.47;5016070;28;20037;-78
2023/03/20 02:58:22;;;;;;;28.80;19.50;;;;;;;5.83;100.00;101824.00;5017604;28;20033;-78
2023/03/20 03:00:51;;;;;;;29.52;19.42;;;;;;;5.81;100.00;101817.97;5017787;28;20025;-78
2023/03/20 03:03:23;;;;;;;31.53;20.13;;;;;;;5.80;100.00;101818.97;5018343;28;20045;-80
2023/03/20 03:05:55;;;;;;;30.50;20.47;;;;;;;5.78;100.00;101818.28;5018319;28;20033;-81
2023/03/20 03:08:25;;;;;;;28.57;19.23;;;;;;;5.74;100.00;101820.44;5018130;28;21243;-80
2023/03/20 03:11:10;;;;;;;27.43;18.53;;;;;;;5.80;100.00;101813.56;5017982;28;20108;-80
2023/03/20 03:13:41;;;;;;;28.67;19.50;;;;;;;5.76;100.00;101814.88;5016041;28;20056;-80
2023/03/20 03:16:16;;;;;;;28.10;19.30;;;;;;;5.73;100.00;101810.66;5017735;28;20144;-80
2023/03/20 03:18:43;;;;;;;28.83;19.07;;;;;;;5.71;100.00;101801.06;5016593;28;20584;-80
2023/03/20 03:21:10;;;;;;;29.30;19.00;;;;;;;5.68;100.00;101796.00;5017740;28;20072;-81
2023/03/20 03:23:46;;;;;;;29.67;18.97;;;;;;;5.69;100.00;101784.25;5017317;28;20645;-80
2023/03/20 03:26:18;;;;;;;28.00;18.80;;;;;;;5.70;100.00;101781.41;5018091;28;20033;-81
2023/03/20 03:28:48;;;;;;;27.57;20.23;;;;;;;5.67;100.00;101781.72;5017311;28;20767;-80
2023/03/20 03:31:16;;;;;;;29.73;20.20;;;;;;;5.69;100.00;101776.19;5010635;28;20037;-80
2023/03/20 03:33:45;;;;;;;28.57;19.83;;;;;;;5.69;100.00;101779.72;5017299;28;20089;-80
2023/03/20 03:36:15;;;;;;;31.53;20.30;;;;;;;5.69;100.00;101778.88;5017880;28;20464;-81
2023/03/20 03:38:53;;;;;;;29.07;19.87;;;;;;;5.71;100.00;101787.63;5017206;28;20025;-80
2023/03/20 03:41:41;;;;;;;28.60;18.50;;;;;;;5.76;100.00;101779.94;5033254;28;20029;-80
2023/03/20 03:44:22;;;;;;;28.50;18.47;;;;;;;5.69;100.00;101787.78;5016952;28;20021;-80
2023/03/20 03:46:55;;;;;;;28.30;17.87;;;;;;;5.64;100.00;101779.34;5017368;28;20036;-80
2023/03/20 03:49:25;;;;;;;28.00;18.43;;;;;;;5.62;100.00;101788.59;5016612;28;20036;-80
2023/03/20 03:51:55;;;;;;;26.47;16.73;;;;;;;5.63;100.00;101790.25;5017216;28;20029;-80
2023/03/20 03:54:27;;;;;;;25.53;18.20;;;;;;;5.60;100.00;101777.13;5016737;28;20048;-80
2023/03/20 03:56:54;;;;;;;26.60;17.80;;;;;;;5.58;100.00;101778.13;5017406;28;20055;-80
2023/03/20 03:59:29;;;;;;;26.23;17.97;;;;;;;5.60;100.00;101777.13;5016652;28;20485;-80
2023/03/20 04:01:56;;;;;;;28.83;17.63;;;;;;;5.57;100.00;101775.59;5017538;28;20032;-80
2023/03/20 04:04:24;;;;;;;28.87;18.23;;;;;;;5.55;100.00;101778.44;5016587;28;20460;-80
2023/03/20 04:06:50;;;;;;;27.03;16.77;;;;;;;5.53;100.00;101777.72;5016941;28;20033;-81
2023/03/20 04:09:15;;;;;;;25.57;17.03;;;;;;;5.52;100.00;101768.00;5017091;28;20026;-80
2023/03/20 04:11:40;;;;;;;27.40;18.37;;;;;;;5.50;100.00;101767.31;5016578;28;20087;-78
2023/03/20 04:14:06;;;;;;;25.90;17.30;;;;;;;5.48;100.00;101765.75;5016060;28;20041;-77
2023/03/20 04:16:32;;;;;;;25.83;16.63;;;;;;;5.48;100.00;101765.75;5016286;28;20041;-77
2023/03/20 04:18:57;;;;;;;25.10;16.60;;;;;;;5.49;100.00;101765.59;5016139;28;20033;-77
2023/03/20 04:21:23;;;;;;;24.80;16.87;;;;;;;5.49;100.00;101767.47;5015163;28;20033;-78
2023/03/20 04:23:49;;;;;;;24.87;17.23;;;;;;;5.49;100.00;101757.53;5016667;28;20033;-80
2023/03/20 04:26:14;;;;;;;25.13;17.07;;;;;;;5.48;100.00;101766.63;5017069;28;20370;-81
2023/03/20 04:28:39;;;;;;;25.67;16.80;;;;;;;5.47;100.00;101764.09;5016515;28;20048;-80
2023/03/20 04:31:06;;;;;;;24.13;15.87;;;;;;;5.44;100.00;101754.50;5016184;28;20994;-80
2023/03/20 04:33:31;;;;;;;23.23;15.73;;;;;;;5.44;100.00;101761.69;5015854;28;20460;-80
2023/03/20 04:35:56;;;;;;;24.00;15.73;;;;;;;5.46;100.00;101757.03;5016381;28;20048;-80
2023/03/20 04:38:22;;;;;;;26.83;17.03;;;;;;;5.47;100.00;101754.19;5015957;28;21799;-80
2023/03/20 04:40:48;;;;;;;25.37;17.67;;;;;;;5.44;100.00;101754.50;5020742;28;20093;-80
2023/03/20 04:43:14;;;;;;;25.17;17.13;;;;;;;5.40;100.00;101755.81;5010692;28;20117;-80
2023/03/20 04:45:40;;;;;;;27.27;19.33;;;;;;;5.37;100.00;101745.34;5015918;28;20029;-80
2023/03/20 04:48:06;;;;;;;27.10;18.03;;;;;;;5.38;100.00;101739.81;5016301;28;20040;-77
2023/03/20 04:50:32;;;;;;;23.57;17.07;;;;;;;5.44;100.00;101735.69;5015406;28;20029;-78
2023/03/20 04:52:57;;;;;;;26.43;17.63;;;;;;;5.39;100.00;101729.94;5012958;28;20459;-77
2023/03/20 04:55:23;;;;;;;26.20;17.93;;;;;;;5.40;100.00;101737.00;5014129;28;20025;-77
2023/03/20 04:57:49;;;;;;;25.27;17.30;;;;;;;5.38;100.00;101741.66;5015580;28;20954;-77
2023/03/20 05:00:15;;;;;;;28.07;17.13;;;;;;;5.37;100.00;101737.28;5015483;28;20048;-77
2023/03/20 05:02:41;;;;;;;26.07;17.50;;;;;;;5.38;100.00;101738.97;5015285;28;20033;-77
2023/03/20 05:05:07;;;;;;;26.43;17.57;;;;;;;5.32;100.00;101747.69;5015242;28;20440;-77
2023/03/20 05:07:32;;;;;;;24.43;17.10;;;;;;;5.32;100.00;101751.19;5014255;28;20056;-77
2023/03/20 05:09:58;;;;;;;23.83;16.67;;;;;;;5.32;100.00;101759.25;5015250;28;20033;-77
2023/03/20 05:12:24;;;;;;;24.63;17.13;;;;;;;5.31;100.00;101748.66;5015538;28;20029;-78
2023/03/20 05:14:49;;;;;;;23.83;16.10;;;;;;;5.32;100.00;101747.69;5014926;28;20037;-78
2023/03/20 05:17:17;;;;;;;25.53;17.00;;;;;;;5.34;100.00;101740.28;5015025;28;20132;-78
2023/03/20 05:19:43;;;;;;;25.57;16.43;;;;;;;5.37;100.00;101739.97;5015054;28;20052;-77
2023/03/20 05:22:08;;;;;;;27.23;17.13;;;;;;;5.34;100.00;101737.59;5015342;28;20025;-77
2023/03/20 05:24:34;;;;;;;23.83;16.73;;;;;;;5.31;100.00;101730.69;5014712;28;20079;-77
2023/03/20 05:26:59;;;;;;;25.63;16.60;;;;;;;5.34;100.00;101732.22;5015245;28;20034;-77
2023/03/20 05:29:25;;;;;;;26.13;16.97;;;;;;;5.35;100.00;101742.00;5014846;28;20039;-77
2023/03/20 05:31:50;;;;;;;25.10;16.07;;;;;;;5.39;100.00;101743.38;5015020;28;20037;-78
2023/03/20 05:34:15;;;;;;;24.63;15.97;;;;;;;5.38;100.00;101738.97;5015331;28;20033;-80
2023/03/20 05:36:41;;;;;;;22.57;15.63;;;;;;;5.37;100.00;101737.28;5015669;28;20481;-80
2023/03/20 05:39:06;;;;;;;25.93;16.97;;;;;;;5.40;100.00;101735.13;5015631;28;20029;-80
2023/03/20 05:41:32;;;;;;;23.67;15.93;;;;;;;5.40;100.00;101737.00;5016695;28;20064;-80
2023/03/20 05:43:57;;;;;;;27.00;16.47;;;;;;;5.40;100.00;101732.44;5019340;28;20025;-80
2023/03/20 05:46:23;;;;;;;25.20;16.67;;;;;;;5.39;100.00;101746.06;5018476;28;20132;-80
2023/03/20 05:48:48;;;;;;;25.60;16.10;;;;;;;5.44;100.00;101737.50;5019542;28;20080;-80
2023/03/20 05:51:13;;;;;;;25.03;15.70;;;;;;;5.40;100.00;101747.75;5019678;28;20029;-80
2023/03/20 05:53:39;;;;;;;25.00;15.67;;;;;;;5.39;100.00;101746.88;5018265;28;20136;-80
2023/03/20 05:56:05;;;;;;;25.90;16.27;;;;;;;5.43;100.00;101762.69;5019670;28;20029;-80
2023/03/20 05:58:30;;;;;;;22.97;15.30;;;;;;;5.45;100.00;101756.16;5019273;28;20108;-80
2023/03/20 06:00:57;;;;;;;21.80;15.07;;;;;;;5.44;100.00;101762.56;5019654;28;20105;-80
2023/03/20 06:03:22;;;;;;;25.17;14.83;;;;;;;5.49;100.00;101764.78;5017204;28;21751;-80
2023/03/20 06:05:47;;;;;;;23.43;15.00;;;;;;;5.48;100.00;101766.63;5019211;28;20169;-80
2023/03/20 06:08:14;;;;;;;25.50;15.13;;;;;;;5.52;100.00;101767.13;5019565;28;20124;-80
2023/03/20 06:10:40;;;;;;;24.80;15.07;;;;;;;5.52;100.00;101770.69;5019233;28;20033;-80
2023/03/20 06:13:05;;;;;;;23.77;14.50;;;;;;;5.52;100.00;101769.81;5019171;28;20040;-80
2023/03/20 06:15:30;;;;;;;22.43;13.80;;;;;;;5.57;100.00;101771.03;5018883;28;20037;-80
2023/03/20 06:17:56;;;;;;;22.07;13.30;;;;;;;5.63;100.00;101774.13;5019086;28;20037;-80
2023/03/20 06:20:22;;;;;;;23.23;13.30;;;;;;;5.60;100.00;101779.81;5018931;28;20033;-80
2023/03/20 06:22:47;;;;;;;23.30;13.87;;;;;;;5.60;100.00;101774.44;5018569;28;20099;-78
2023/03/20 06:25:13;;;;;;;22.20;13.30;;;;;;;5.61;100.00;101781.50;5016710;28;20148;-78
2023/03/20 06:27:38;;;;;;;22.23;13.57;;;;;;;5.64;100.00;101781.19;5018650;28;20037;-80
2023/03/20 06:30:04;;;;;;;25.03;13.30;;;;;;;5.69;100.00;101784.25;5018888;28;20029;-80
2023/03/20 06:32:30;;;;;;;22.70;13.80;;;;;;;5.72;100.00;101792.00;5018679;28;20049;-80
2023/03/20 06:34:56;;;;;;;21.23;13.30;;;;;;;5.74;100.00;101787.31;5011079;28;20030;-80
2023/03/20 06:37:21;;;;;;;20.83;13.03;;;;;;;5.75;100.00;101791.69;5018345;28;20033;-80
2023/03/20 06:39:46;;;;;;;21.13;12.87;;;;;;;5.77;100.00;101788.84;5018965;28;20041;-81
2023/03/20 06:42:12;;;;;;;21.17;12.57;;;;;;;5.79;100.00;101785.00;5018163;28;20029;-80
2023/03/20 06:44:38;;;;;;;20.43;12.33;;;;;;;5.78;100.00;101791.38;5018260;28;21716;-80
2023/03/20 06:47:04;;;;;;;21.53;12.13;;;;;;;5.84;100.00;101795.28;5018288;28;20029;-80
2023/03/20 06:49:30;;;;;;;21.60;12.73;;;;;;;5.85;100.00;101800.50;5017014;28;20045;-81
2023/03/20 06:51:55;;;;;;;23.57;12.83;;;;;;;5.91;100.00;101805.25;5016090;28;20036;-80
2023/03/20 06:54:21;;;;;;;24.33;13.00;;;;;;;5.94;100.00;101814.84;5018065;28;20041;-80
2023/03/20 06:56:46;;;;;;;23.57;11.80;;;;;;;5.99;100.00;101807.19;5017839;28;20516;-81
2023/03/20 06:59:11;;;;;;;22.43;12.53;;;;;;;6.04;100.00;101817.50;5017003;28;20071;-80
2023/03/20 07:01:37;;;;;;;20.17;11.67;;;;;;;6.07;100.00;101811.78;5016575;28;20036;-80
2023/03/20 07:04:02;;;;;;;22.33;12.10;;;;;;;6.06;100.00;101819.00;5017831;28;20065;-80
2023/03/20 07:06:28;;;;;;;24.03;12.03;;;;;;;6.12;100.00;101814.00;5016200;28;20119;-80
2023/03/20 07:08:53;;;;;;;22.10;11.63;;;;;;;6.09;100.00;101815.16;5016144;28;20095;-81
2023/03/20 07:11:19;;;;;;;22.77;12.47;;;;;;;6.16;100.00;101816.22;5016910;28;20123;-81
2023/03/20 07:13:44;;;;;;;23.37;11.90;;;;;;;6.23;100.00;101829.88;5017746;28;20041;-78
2023/03/20 07:16:10;;;;;;;21.20;10.93;;;;;;;6.20;100.00;101825.66;5017129;28;20410;-78
2023/03/20 07:18:36;;;;;;;19.23;11.67;;;;;;;6.18;100.00;101830.34;5016573;28;20034;-77
2023/03/20 07:21:05;;;;;;;21.93;11.30;;;;;;;6.17;100.00;101831.34;5016908;28;20029;-77
2023/03/20 07:23:31;;;;;;;16.67;10.47;;;;;;;6.19;100.00;101826.66;5016731;28;20419;-77
2023/03/20 07:25:57;;;;;;;21.03;10.90;;;;;;;6.24;100.00;101832.41;5016633;28;20037;-78
2023/03/20 07:28:23;;;;;;;20.30;11.30;;;;;;;6.25;100.00;101835.94;5016395;28;20033;-78
2023/03/20 07:30:48;;;;;;;21.30;11.73;;;;;;;6.29;100.00;101840.00;5016907;28;20033;-78
2023/03/20 07:33:14;;;;;;;18.50;10.90;;;;;;;6.28;100.00;101834.78;5017147;28;20049;-78
2023/03/20 07:35:39;;;;;;;21.10;10.87;;;;;;;6.28;100.00;101834.78;5016569;28;20087;-78
2023/03/20 07:38:05;;;;;;;20.23;10.87;;;;;;;6.34;100.00;101831.47;5017064;28;20095;-78
2023/03/20 07:40:31;;;;;;;21.43;10.97;;;;;;;6.37;100.00;101831.13;5016860;28;20025;-78
2023/03/20 07:42:57;;;;;;;20.53;10.87;;;;;;;6.44;100.00;101842.94;5015881;28;20488;-78
2023/03/20 07:45:22;;;;;;;18.33;10.47;;;;;;;6.48;100.00;101833.53;5016092;28;20032;-78
2023/03/20 07:47:48;;;;;;;19.53;10.20;;;;;;;6.48;100.00;101836.25;5016951;28;20628;-78
2023/03/20 07:50:14;;;;;;;17.30;9.93;;;;;;;6.51;100.00;101835.91;5016599;28;20663;-78
2023/03/20 07:52:39;;;;;;;18.93;10.23;;;;;;;6.53;100.00;101833.91;5009794;28;20057;-78
2023/03/20 07:55:06;;;;;;;20.47;10.50;;;;;;;6.53;100.00;101831.22;5009014;28;20033;-77
2023/03/20 07:57:32;;;;;;;18.30;10.27;;;;;;;6.57;100.00;101829.91;5009062;28;20033;-77
2023/03/20 07:59:57;;;;;;;23.13;10.47;;;;;;;6.62;100.00;101829.41;5010128;28;20049;-77
2023/03/20 08:02:22;;;;;;;19.90;10.43;;;;;;;6.63;100.00;101825.72;5004589;28;20029;-77
2023/03/20 08:04:48;;;;;;;18.73;9.80;;;;;;;6.62;100.00;101828.56;5002494;28;20144;-76
2023/03/20 08:07:13;;;;;;;18.67;9.83;;;;;;;6.68;100.00;101834.16;5008994;28;20109;-77
2023/03/20 08:09:39;;;;;;;20.83;10.87;;;;;;;6.71;100.00;101827.59;5008557;28;20033;-76
2023/03/20 08:12:05;;;;;;;20.37;10.33;;;;;;;6.70;100.00;101836.69;5009007;28;20045;-77
2023/03/20 08:14:31;;;;;;;19.60;9.80;;;;;;;6.67;100.00;101827.06;5009090;28;20028;-76
2023/03/20 08:16:57;;;;;;;18.23;9.63;;;;;;;6.63;100.00;101838.34;5026624;28;20413;-76
2023/03/20 08:19:22;;;;;;;20.03;9.20;;;;;;;6.73;100.00;101828.25;5007924;28;20116;-76
2023/03/20 08:21:48;;;;;;;18.93;9.63;;;;;;;6.68;100.00;101827.94;5002541;28;20031;-77
2023/03/20 08:24:14;;;;;;;19.20;9.67;;;;;;;6.68;100.00;101828.75;5008267;28;20034;-77
2023/03/20 08:26:40;;;;;;;19.73;9.53;;;;;;;6.74;100.00;101829.97;5008138;28;20041;-77
2023/03/20 08:29:06;;;;;;;20.83;10.07;;;;;;;6.73;100.00;101830.97;5008328;28;20045;-76
2023/03/20 08:31:31;;;;;;;19.00;9.57;;;;;;;6.73;100.00;101830.97;5008362;28;20112;-77
2023/03/20 08:33:57;;;;;;;17.57;9.33;;;;;;;6.74;100.00;101827.28;5008596;28;20047;-77
2023/03/20 08:36:23;;;;;;;16.90;9.53;;;;;;;6.76;100.00;101839.56;5008535;28;20104;-77
2023/03/20 08:38:49;;;;;;;18.37;9.00;;;;;;;6.82;100.00;101832.69;5008856;28;20033;-77
2023/03/20 08:41:15;;;;;;;20.37;8.90;;;;;;;6.72;100.00;101835.50;5008919;28;20112;-76
2023/03/20 08:43:40;;;;;;;20.07;9.53;;;;;;;6.80;100.00;101832.03;5002806;28;20045;-76
2023/03/20 08:46:06;;;;;;;19.27;9.60;;;;;;;6.84;100.00;101843.28;5008331;28;20041;-77
2023/03/20 08:48:32;;;;;;;19.60;8.90;;;;;;;6.90;100.00;101831.88;5022828;28;20052;-77
2023/03/20 08:50:57;;;;;;;20.17;9.37;;;;;;;6.91;100.00;101829.03;5007399;28;20030;-77
2023/03/20 08:53:23;;;;;;;18.60;9.50;;;;;;;6.92;100.00;101822.63;5007731;28;20021;-77
2023/03/20 08:55:50;;;;;;;18.83;8.60;;;;;;;7.03;100.00;101829.56;5008648;28;20101;-77
2023/03/20 08:58:16;;;;;;;19.70;9.00;;;;;;;6.98;100.00;101831.06;5008342;28;20123;-77
2023/03/20 09:00:42;;;;;;;19.73;9.20;;;;;;;7.07;100.00;101835.44;5007786;28;20126;-77
2023/03/20 09:03:15;;;;;;;19.03;8.33;;;;;;;7.05;100.00;101830.22;5008042;28;20037;-77
2023/03/20 09:05:45;;;;;;;19.77;8.63;;;;;;;7.09;100.00;101826.19;5007415;28;20084;-77
2023/03/20 09:08:10;;;;;;;19.37;8.60;;;;;;;7.06;100.00;101820.31;5008168;28;20053;-77
2023/03/20 09:10:36;;;;;;;16.60;8.27;;;;;;;7.15;100.00;101816.59;5007613;28;20129;-76
2023/03/20 09:13:02;;;;;;;18.77;8.60;;;;;;;7.18;100.00;101824.38;5008236;28;20032;-77
2023/03/20 09:15:27;;;;;;;19.10;8.40;;;;;;;7.17;100.00;101822.69;5008627;28;20032;-77
2023/03/20 09:17:52;;;;;;;21.30;8.43;;;;;;;7.19;100.00;101826.03;5007721;28;20163;-77
2023/03/20 09:20:18;;;;;;;18.47;8.10;;;;;;;7.19;100.00;101830.59;5007526;28;20025;-76
2023/03/20 09:22:44;;;;;;;18.43;8.17;;;;;;;7.22;100.00;101835.66;5007645;28;20033;-77
2023/03/20 09:25:10;;;;;;;18.97;8.63;;;;;;;7.23;100.00;101842.75;5007565;28;20527;-76
2023/03/20 09:27:36;;;;;;;17.40;8.17;;;;;;;7.26;100.00;101834.31;5008234;28;20037;-77
2023/03/20 09:30:02;;;;;;;19.37;8.50;;;;;;;7.31;100.00;101833.84;5007720;28;21885;-76
2023/03/20 09:32:28;;;;;;;19.97;8.03;;;;;;;7.23;100.00;101831.97;5006950;28;20046;-77
2023/03/20 09:34:54;;;;;;;19.10;8.40;;;;;;;7.20;100.00;101843.09;5007034;28;20378;-77
2023/03/20 09:37:19;;;;;;;17.77;8.43;;;;;;;7.22;100.00;101833.81;5006278;28;20078;-77
2023/03/20 09:39:45;;;;;;;18.10;8.20;;;;;;;7.28;100.00;101844.97;4988846;28;20025;-77
2023/03/20 09:42:41;;;;;;;18.30;9.17;;;;;;;7.25;100.00;101852.34;5007196;28;20045;-76
2023/03/20 09:45:25;;;;;;;20.43;9.37;;;;;;;7.17;100.00;101855.03;5014871;28;20025;-79
2023/03/20 09:48:07;;;;;;;15.93;8.70;;;;;;;7.17;100.00;101856.91;5015133;28;20036;-80
2023/03/20 09:50:45;;;;;;;17.60;8.57;;;;;;;7.08;100.00;101853.31;5014768;28;20068;-80
2023/03/20 09:53:34;;;;;;;15.57;8.20;;;;;;;7.22;100.00;101858.09;5014316;28;20033;-80
2023/03/20 09:56:00;;;;;;;16.77;8.40;;;;;;;7.19;100.00;101842.22;5014650;28;20037;-80
2023/03/20 09:58:31;;;;;;;18.80;8.20;;;;;;;7.12;100.00;101848.44;5015140;28;20053;-80
2023/03/20 10:00:59;;;;;;;17.43;7.90;;;;;;;7.09;100.00;101849.63;5014771;28;20088;-79
2023/03/20 10:04:03;;;;;;;17.97;8.33;;;;;;;7.13;100.00;101842.91;5008935;28;20037;-80
2023/03/20 10:06:28;;;;;;;17.20;7.70;;;;;;;7.09;100.00;101842.38;5006885;28;20049;-80
2023/03/20 10:08:54;;;;;;;16.90;7.77;;;;;;;7.11;100.00;101844.91;5008826;28;20119;-80
2023/03/20 10:11:37;;;;;;;15.37;7.90;;;;;;;7.00;100.00;101840.66;5008415;28;21446;-81
2023/03/20 10:14:17;;;;;;;17.13;9.00;;;;;;;7.03;100.00;101837.66;5009234;28;20040;-81
2023/03/20 10:17:18;;;;;;;17.13;8.07;;;;;;;6.99;100.00;101836.28;5008717;28;21155;-80
2023/03/20 10:19:50;;;;;;;19.60;9.87;;;;;;;6.96;100.00;101833.91;4968266;28;20034;-80
2023/03/20 10:22:25;;;;;;;15.90;8.80;;;;;;;7.07;100.00;101832.75;5001800;28;20160;-81
2023/03/20 10:25:02;;;;;;;20.23;8.83;;;;;;;7.12;100.00;101833.13;5008193;28;20404;-80
2023/03/20 10:27:38;;;;;;;18.13;9.00;;;;;;;7.15;100.00;101827.38;5009715;28;20123;-80
2023/03/20 10:30:35;;;;;;;17.70;8.50;;;;;;;7.09;100.00;101819.97;5011094;28;20026;-80
2023/03/20 10:33:23;;;;;;;15.87;7.93;;;;;;;7.18;100.00;101829.78;5011378;28;20052;-80
2023/03/20 10:35:52;;;;;;;18.03;8.10;;;;;;;7.13;100.00;101826.72;5011668;28;20041;-80
2023/03/20 10:38:43;;;;;;;15.73;7.63;;;;;;;7.09;100.00;101825.38;5012148;28;20029;-80
2023/03/20 10:41:16;;;;;;;15.87;7.50;;;;;;;6.99;100.00;101819.25;5011814;28;20025;-80
2023/03/20 10:43:43;;;;;;;19.67;8.77;;;;;;;7.00;100.00;101810.19;5012350;28;20036;-80
2023/03/20 10:46:20;;;;;;;17.90;8.30;;;;;;;7.00;100.00;101824.47;5011810;28;20041;-80
2023/03/20 10:48:55;;;;;;;16.90;8.10;;;;;;;6.97;100.00;101824.00;5011398;28;20037;-80
2023/03/20 10:51:28;;;;;;;17.90;8.40;;;;;;;6.85;100.00;101813.50;5011193;28;20033;-80
2023/03/20 10:53:58;;;;;;;19.53;8.97;;;;;;;6.75;100.00;101826.28;5009255;28;20096;-80
2023/03/20 10:56:35;;;;;;;18.03;8.90;;;;;;;6.84;100.00;101813.66;5011531;28;20029;-80
2023/03/20 10:59:07;;;;;;;16.67;7.80;;;;;;;6.82;100.00;101810.31;5012073;28;20025;-80
2023/03/20 11:01:32;;;;;;;17.63;7.43;;;;;;;6.98;100.00;101817.59;5009923;28;20060;-80
2023/03/20 11:03:58;;;;;;;15.00;7.80;;;;;;;7.01;100.00;101826.19;5012137;28;20468;-80
2023/03/20 11:06:31;;;;;;;18.10;8.47;;;;;;;7.09;100.00;101826.19;5005139;28;20041;-80
2023/03/20 11:09:17;;;;;;;17.90;8.07;;;;;;;7.11;100.00;101812.56;5011502;28;20108;-80
2023/03/20 11:11:45;;;;;;;17.60;7.70;;;;;;;7.18;100.00;101816.28;5012132;28;20117;-80
2023/03/20 11:14:20;;;;;;;14.87;6.83;;;;;;;7.26;100.00;101819.00;5011636;28;20746;-80
2023/03/20 11:16:53;;;;;;;18.60;8.80;;;;;;;7.30;100.00;101805.19;5010984;28;21004;-80
2023/03/20 11:19:21;;;;;;;17.23;8.00;;;;;;;7.30;100.00;101806.00;5008913;28;20086;-80
2023/03/20 11:21:55;;;;;;;16.00;8.47;;;;;;;7.34;100.00;101803.84;5009839;28;20852;-80
2023/03/20 11:24:50;;;;;;;16.13;8.53;;;;;;;7.42;100.00;101804.72;5010724;28;20079;-80